KWVL/WVL METAR and TAF weather

Enter ICAO airport designator
Station Type Date Time Source
KWVL METAR 2021/01/16 02:56 UTC NOAA

KWVL 160256Z AUTO 00000KT 10SM CLR M01/M05 A3010 RMK AO2 SLP225 T10111050 50005 FZRANO


Station Type Date Time Source
KWVL Decoded METAR 2021/01/16 02:56 UTC NOAA

Waterville, Waterville Robert LaFleur Airport, ME, United States (KWVL) 44-32N 069-41W
Jan 15, 2021 - 09:56 PM EST / 2021.01.16 0256 UTC
Wind: Calm:0
Visibility: 10 mile(s):0
Sky conditions: clear
Temperature: 30.0 F (-1.1 C)
Dew Point: 23.0 F (-5.0 C)
Relative Humidity: 74%
Pressure (altimeter): 30.1 in. Hg (1019 hPa)
Pressure tendency: 0.01 inches (0.5 hPa) higher than three hours ago
ob: KWVL 160256Z AUTO 00000KT 10SM CLR M01/M05 A3010 RMK AO2 SLP225 T10111050 50005 FZRANO
cycle: 3

Station Type Date Time Source
KWVL TAF UTC NOAA

Error!

Example: see airport list